Time;durP1;ratioP1;P1;durP2;ratioP2;P2;SDS_P1;SDS_P2;PMS_P1;PMS_P2;Temp;Humidity;BMP_temperature;BMP_pressure;BME280_temperature;BME280_humidity;BME280_pressure;Samples;Min_cycle;Max_cycle;Signal;HPM_P1;HPM_P2
2022/07/27 00:00:34;;;;;;;5.32;1.60;;;15.40;99.90;;;;;;4891385;29;20412;-73
2022/07/27 00:03:00;;;;;;;4.18;1.92;;;15.40;99.90;;;;;;4895356;29;20040;-73
2022/07/27 00:05:26;;;;;;;6.53;2.10;;;15.30;99.90;;;;;;4908249;29;20055;-73
2022/07/27 00:07:51;;;;;;;5.05;1.80;;;15.30;99.90;;;;;;4892696;29;20045;-73
2022/07/27 00:10:17;;;;;;;5.30;1.92;;;15.20;99.90;;;;;;4896468;29;20052;-73
2022/07/27 00:12:43;;;;;;;7.15;1.90;;;15.20;99.90;;;;;;4909338;29;20564;-73
2022/07/27 00:15:09;;;;;;;4.10;1.92;;;15.20;99.90;;;;;;4893171;29;20048;-73
2022/07/27 00:17:35;;;;;;;4.85;1.88;;;15.10;99.90;;;;;;4896349;29;20048;-73
2022/07/27 00:20:01;;;;;;;4.72;2.17;;;15.00;99.90;;;;;;4896515;29;20461;-73
2022/07/27 00:22:27;;;;;;;4.53;2.10;;;15.00;99.90;;;;;;4893722;29;20040;-73
2022/07/27 00:24:53;;;;;;;9.27;2.20;;;15.00;99.90;;;;;;4890925;29;20473;-73
2022/07/27 00:27:18;;;;;;;5.93;1.80;;;14.90;99.90;;;;;;4895993;29;20104;-73
2022/07/27 00:29:46;;;;;;;7.38;1.90;;;14.90;99.90;;;;;;4895012;29;20048;-73
2022/07/27 00:32:12;;;;;;;6.45;2.15;;;14.90;99.90;;;;;;4891413;29;20059;-73
2022/07/27 00:34:38;;;;;;;5.30;1.70;;;14.80;99.90;;;;;;4894441;29;20404;-73
2022/07/27 00:37:04;;;;;;;7.93;2.05;;;14.80;99.90;;;;;;4876511;29;20053;-73
2022/07/27 00:39:30;;;;;;;6.93;2.00;;;14.70;99.90;;;;;;4886846;29;20048;-73
2022/07/27 00:41:56;;;;;;;7.13;2.13;;;14.70;99.90;;;;;;4894654;29;20443;-73
2022/07/27 00:44:30;;;;;;;7.13;1.80;;;14.70;99.90;;;;;;4876921;29;20052;-73
2022/07/27 00:46:57;;;;;;;5.65;2.08;;;14.70;99.90;;;;;;4887690;29;20133;-73
2022/07/27 00:49:25;;;;;;;7.32;2.05;;;14.70;99.90;;;;;;4894472;29;20087;-73
2022/07/27 00:51:52;;;;;;;5.05;2.20;;;14.70;99.90;;;;;;4893530;29;20049;-73
2022/07/27 00:54:18;;;;;;;5.30;2.17;;;14.60;99.90;;;;;;4890352;29;20049;-73
2022/07/27 00:56:44;;;;;;;4.80;1.60;;;14.60;99.90;;;;;;4877806;29;20104;-73
2022/07/27 00:59:11;;;;;;;8.35;2.42;;;14.70;99.90;;;;;;4892722;29;20093;-73
2022/07/27 01:01:37;;;;;;;5.72;1.80;;;14.70;99.90;;;;;;4892206;29;20044;-73
2022/07/27 01:04:04;;;;;;;5.80;2.10;;;14.60;99.90;;;;;;4874262;29;20049;-73
2022/07/27 01:06:30;;;;;;;4.80;1.63;;;14.60;99.90;;;;;;4893980;29;20400;-73
2022/07/27 01:11:42;;;;;;;8.25;1.75;;;14.60;99.90;;;;;;4877479;29;20061;-72
2022/07/27 01:14:09;;;;;;;5.35;2.05;;;14.60;99.90;;;;;;4877080;29;20143;-73
2022/07/27 01:16:35;;;;;;;6.90;1.95;;;14.60;99.90;;;;;;4894034;29;20084;-73
2022/07/27 01:19:00;;;;;;;4.93;1.80;;;14.50;99.90;;;;;;4894791;29;20108;-73
2022/07/27 01:21:26;;;;;;;5.72;1.67;;;14.60;99.90;;;;;;4890630;29;20499;-73
2022/07/27 01:23:51;;;;;;;5.00;1.80;;;14.50;99.90;;;;;;4893129;29;20092;-73
2022/07/27 01:26:17;;;;;;;7.38;2.00;;;14.50;99.90;;;;;;4893174;29;20063;-73
2022/07/27 01:28:44;;;;;;;7.18;2.20;;;14.50;99.90;;;;;;4895210;29;20048;-73
2022/07/27 01:31:10;;;;;;;7.45;2.00;;;14.50;99.90;;;;;;4870273;29;20041;-73
2022/07/27 01:33:36;;;;;;;7.35;2.03;;;14.50;99.90;;;;;;4893982;29;20047;-72
2022/07/27 01:36:01;;;;;;;4.90;2.00;;;14.50;99.90;;;;;;4894586;29;20139;-73
2022/07/27 01:38:27;;;;;;;4.82;1.90;;;14.40;99.90;;;;;;4894695;29;20411;-73
2022/07/27 01:40:53;;;;;;;8.30;2.15;;;14.50;99.90;;;;;;4885352;29;20462;-73
2022/07/27 01:43:20;;;;;;;6.40;1.92;;;14.40;99.90;;;;;;4884529;29;20045;-73
2022/07/27 01:45:46;;;;;;;6.22;2.10;;;14.40;99.90;;;;;;4894279;29;20048;-73
2022/07/27 01:48:12;;;;;;;5.10;2.23;;;14.50;99.90;;;;;;4895800;29;20398;-73
2022/07/27 01:50:38;;;;;;;3.72;1.80;;;14.50;99.90;;;;;;4889829;29;20040;-73
2022/07/27 01:53:04;;;;;;;5.82;2.08;;;14.40;99.90;;;;;;4892678;29;20052;-73
2022/07/27 01:55:30;;;;;;;5.38;1.90;;;14.50;99.90;;;;;;4893881;29;20198;-73
2022/07/27 01:57:55;;;;;;;6.68;2.13;;;14.50;99.90;;;;;;4878142;29;20059;-73
2022/07/27 02:00:21;;;;;;;7.38;2.08;;;14.50;99.90;;;;;;4888370;29;20072;-73
2022/07/27 02:02:47;;;;;;;7.80;2.25;;;14.50;99.90;;;;;;4891657;29;21824;-73
2022/07/27 02:05:12;;;;;;;5.25;1.80;;;14.50;99.90;;;;;;4891098;29;20457;-73
2022/07/27 02:07:39;;;;;;;5.72;2.20;;;14.60;99.90;;;;;;4893843;29;20088;-73
2022/07/27 02:10:06;;;;;;;8.57;2.28;;;14.60;99.90;;;;;;4889255;29;20143;-73
2022/07/27 02:12:35;;;;;;;6.00;2.13;;;14.60;99.90;;;;;;4892171;29;20052;-73
2022/07/27 02:15:09;;;;;;;7.03;1.90;;;14.60;99.90;;;;;;4893036;29;20049;-73
2022/07/27 02:17:36;;;;;;;5.30;2.00;;;14.60;99.90;;;;;;4890960;29;20040;-73
2022/07/27 02:20:02;;;;;;;6.57;2.15;;;14.60;99.90;;;;;;4891880;29;20084;-73
2022/07/27 02:22:28;;;;;;;5.05;2.00;;;14.60;99.90;;;;;;4877429;29;20052;-73
2022/07/27 02:24:54;;;;;;;6.13;2.17;;;14.70;99.90;;;;;;4877596;29;20052;-73
2022/07/27 02:27:19;;;;;;;7.47;2.08;;;14.70;99.90;;;;;;4890705;29;20123;-73
2022/07/27 02:29:45;;;;;;;7.60;2.20;;;14.70;99.90;;;;;;4894513;29;20135;-73
2022/07/27 02:32:10;;;;;;;8.07;2.03;;;14.70;99.90;;;;;;4888713;29;20129;-73
2022/07/27 02:34:36;;;;;;;5.88;2.35;;;14.70;99.90;;;;;;4885368;29;20124;-73
2022/07/27 02:37:02;;;;;;;4.88;2.00;;;14.70;99.90;;;;;;4882978;29;20499;-73
2022/07/27 02:39:27;;;;;;;7.65;2.42;;;14.70;99.90;;;;;;4895888;29;20521;-73
2022/07/27 02:41:53;;;;;;;6.43;2.17;;;14.70;99.90;;;;;;4891377;29;20139;-72
2022/07/27 02:44:19;;;;;;;7.70;2.33;;;14.70;99.90;;;;;;4881931;29;20131;-74
2022/07/27 02:46:44;;;;;;;3.85;1.95;;;14.70;99.90;;;;;;4900216;29;20116;-73
2022/07/27 02:49:10;;;;;;;5.50;2.10;;;14.60;99.90;;;;;;4898386;29;20503;-72
2022/07/27 02:51:36;;;;;;;6.85;2.28;;;14.60;99.90;;;;;;4890850;29;20092;-73
2022/07/27 02:54:02;;;;;;;6.15;2.40;;;14.60;99.90;;;;;;4895881;29;20049;-73
2022/07/27 02:56:27;;;;;;;8.27;2.42;;;14.60;99.90;;;;;;4889050;29;20071;-73
2022/07/27 02:58:54;;;;;;;6.82;2.10;;;14.60;99.90;;;;;;4894531;29;20492;-73
2022/07/27 03:01:20;;;;;;;6.65;2.15;;;14.60;99.90;;;;;;4892692;29;20555;-73
2022/07/27 03:03:46;;;;;;;5.80;2.00;;;14.60;99.90;;;;;;4872531;29;20060;-72
2022/07/27 03:06:12;;;;;;;7.78;2.13;;;14.60;99.90;;;;;;4892967;29;20041;-73
2022/07/27 03:08:38;;;;;;;6.47;2.20;;;14.70;99.90;;;;;;4892868;29;20135;-73
2022/07/27 03:11:04;;;;;;;5.25;2.10;;;14.60;99.90;;;;;;4891602;29;20056;-72
2022/07/27 03:13:30;;;;;;;5.60;1.90;;;14.60;99.90;;;;;;4891881;29;20044;-73
2022/07/27 03:15:56;;;;;;;6.53;2.10;;;14.60;99.90;;;;;;4891803;29;20076;-72
2022/07/27 03:18:22;;;;;;;6.75;2.03;;;14.50;99.90;;;;;;4874465;29;20059;-73
2022/07/27 03:20:48;;;;;;;7.50;2.35;;;14.50;99.90;;;;;;4876264;29;20044;-73
2022/07/27 03:23:14;;;;;;;5.18;2.28;;;14.50;99.90;;;;;;4888219;29;20071;-73
2022/07/27 03:25:39;;;;;;;7.45;2.45;;;14.50;99.90;;;;;;4892360;29;20456;-77
2022/07/27 03:28:05;;;;;;;7.07;2.25;;;14.50;99.90;;;;;;4889545;29;20044;-74
2022/07/27 03:30:31;;;;;;;6.30;2.40;;;14.40;99.90;;;;;;4893246;29;20053;-79
2022/07/27 03:32:57;;;;;;;7.57;2.50;;;14.40;99.90;;;;;;4893822;29;20127;-76
2022/07/27 03:35:23;;;;;;;6.30;2.15;;;14.50;99.90;;;;;;4892521;29;20127;-75
2022/07/27 03:37:49;;;;;;;9.82;2.47;;;14.40;99.90;;;;;;4887463;29;20048;-76
2022/07/27 03:40:14;;;;;;;5.10;2.08;;;14.40;99.90;;;;;;4891942;29;20052;-75
2022/07/27 03:42:40;;;;;;;5.32;2.13;;;14.40;99.90;;;;;;4891471;29;20071;-77
2022/07/27 03:45:07;;;;;;;5.82;1.83;;;14.40;99.90;;;;;;4892270;29;20408;-77
2022/07/27 03:47:33;;;;;;;7.20;2.38;;;14.40;99.90;;;;;;4885510;29;20697;-76
2022/07/27 03:49:59;;;;;;;7.25;2.20;;;14.30;99.90;;;;;;4879679;29;20049;-75
2022/07/27 03:52:24;;;;;;;4.82;1.90;;;14.30;99.90;;;;;;4896800;29;20044;-76
2022/07/27 03:54:50;;;;;;;6.55;2.45;;;14.20;99.90;;;;;;4896304;29;20385;-76
2022/07/27 03:57:16;;;;;;;7.25;2.50;;;14.20;99.90;;;;;;4895314;29;20037;-75
2022/07/27 03:59:41;;;;;;;6.72;1.95;;;14.20;99.90;;;;;;4896520;29;20119;-76
2022/07/27 04:02:07;;;;;;;7.53;2.88;;;14.10;99.90;;;;;;4890665;29;20261;-78
2022/07/27 04:04:33;;;;;;;5.10;2.40;;;14.10;99.90;;;;;;4895851;29;20040;-78
2022/07/27 04:06:58;;;;;;;6.97;2.85;;;14.10;99.90;;;;;;4892033;29;20123;-78
2022/07/27 04:09:24;;;;;;;4.15;2.00;;;14.10;99.90;;;;;;4896583;29;20060;-74
2022/07/27 04:11:50;;;;;;;6.07;2.40;;;14.00;99.90;;;;;;4894112;29;20049;-77
2022/07/27 04:14:16;;;;;;;6.55;2.45;;;14.00;99.90;;;;;;4893666;29;20120;-75
2022/07/27 04:16:41;;;;;;;7.55;2.53;;;14.00;99.90;;;;;;4897599;29;20052;-78
2022/07/27 04:19:07;;;;;;;8.10;2.30;;;14.00;99.90;;;;;;4895378;29;20056;-76
2022/07/27 04:21:36;;;;;;;5.80;2.60;;;14.00;99.90;;;;;;4889029;29;20158;-75
2022/07/27 04:24:02;;;;;;;4.38;2.45;;;14.00;99.90;;;;;;4896333;29;20065;-78
2022/07/27 04:26:28;;;;;;;9.18;2.95;;;14.00;99.90;;;;;;4896511;29;20048;-75
2022/07/27 04:28:54;;;;;;;7.88;2.78;;;14.00;99.90;;;;;;4894763;29;20052;-76
2022/07/27 04:31:20;;;;;;;7.78;2.70;;;14.00;99.90;;;;;;4895578;29;20088;-77
2022/07/27 04:33:46;;;;;;;5.55;2.60;;;14.00;99.90;;;;;;4894987;29;20055;-76
2022/07/27 04:36:12;;;;;;;10.20;2.63;;;14.00;99.90;;;;;;4895264;29;20033;-76
2022/07/27 04:38:38;;;;;;;6.35;2.95;;;14.00;99.90;;;;;;4896586;29;20112;-75
2022/07/27 04:41:04;;;;;;;6.03;2.60;;;14.10;99.90;;;;;;4892531;29;20067;-76
2022/07/27 04:43:30;;;;;;;6.30;2.97;;;14.10;99.90;;;;;;4896114;29;20481;-75
2022/07/27 04:45:56;;;;;;;6.65;2.50;;;14.10;99.90;;;;;;4888747;29;20056;-75
2022/07/27 04:48:21;;;;;;;5.32;2.80;;;14.20;99.90;;;;;;4894094;29;20051;-80
2022/07/27 04:50:47;;;;;;;7.20;2.55;;;14.20;99.90;;;;;;4894590;29;20045;-75
2022/07/27 04:53:13;;;;;;;9.23;2.60;;;14.20;99.90;;;;;;4895735;29;20255;-77
2022/07/27 04:55:44;;;;;;;5.88;2.75;;;14.20;99.90;;;;;;4892540;29;20559;-74
2022/07/27 04:58:10;;;;;;;10.15;3.20;;;14.20;99.90;;;;;;4875964;29;20127;-76
2022/07/27 05:00:36;;;;;;;5.05;2.67;;;14.30;99.90;;;;;;4896475;29;20052;-76
2022/07/27 05:03:03;;;;;;;8.30;3.10;;;14.20;99.90;;;;;;4895617;29;20048;-76
2022/07/27 05:05:29;;;;;;;4.80;2.70;;;14.30;99.90;;;;;;4895534;29;20052;-76
2022/07/27 05:07:55;;;;;;;6.78;2.85;;;14.30;99.90;;;;;;4893677;29;20297;-74
2022/07/27 05:10:21;;;;;;;5.97;2.92;;;14.30;99.90;;;;;;4893521;29;20124;-75
2022/07/27 05:12:48;;;;;;;5.20;2.88;;;14.30;99.90;;;;;;4895367;29;20132;-77
2022/07/27 05:15:13;;;;;;;6.45;2.92;;;14.40;99.90;;;;;;4885542;29;20052;-75
2022/07/27 05:17:39;;;;;;;8.80;3.45;;;14.40;99.90;;;;;;4895320;29;20051;-78
2022/07/27 05:20:05;;;;;;;6.22;2.90;;;14.50;99.90;;;;;;4895590;29;20045;-75
2022/07/27 05:22:31;;;;;;;6.00;3.03;;;14.50;99.90;;;;;;4896066;29;20120;-75
2022/07/27 05:24:56;;;;;;;7.15;3.10;;;14.50;99.90;;;;;;4892167;29;20044;-75
2022/07/27 05:27:22;;;;;;;8.57;3.55;;;14.60;99.90;;;;;;4892614;29;20044;-75
2022/07/27 05:29:48;;;;;;;7.28;3.20;;;14.60;99.90;;;;;;4895061;29;20047;-73
2022/07/27 05:32:14;;;;;;;7.53;2.80;;;14.60;99.90;;;;;;4891461;29;20085;-75
2022/07/27 05:34:40;;;;;;;8.18;3.00;;;14.70;99.90;;;;;;4897334;29;20037;-74
2022/07/27 05:37:07;;;;;;;6.50;3.00;;;14.70;99.90;;;;;;4891369;29;20071;-76
2022/07/27 05:39:32;;;;;;;7.40;3.08;;;14.80;99.90;;;;;;4896083;29;21228;-76
2022/07/27 05:41:58;;;;;;;6.68;3.20;;;14.80;99.90;;;;;;4893472;29;20127;-76
2022/07/27 05:44:23;;;;;;;8.60;3.40;;;14.90;99.90;;;;;;4890914;29;20052;-76
2022/07/27 05:46:49;;;;;;;6.07;3.20;;;14.90;99.90;;;;;;4894555;29;20123;-77
2022/07/27 05:49:15;;;;;;;8.27;3.22;;;14.90;99.90;;;;;;4894253;29;20048;-78
2022/07/27 05:51:42;;;;;;;9.43;3.15;;;15.00;99.90;;;;;;4887827;29;20220;-75
2022/07/27 05:54:08;;;;;;;8.57;3.10;;;15.00;99.90;;;;;;4889071;29;20135;-72
2022/07/27 05:56:34;;;;;;;7.13;3.10;;;15.00;99.90;;;;;;4884577;29;20057;-77
2022/07/27 05:59:00;;;;;;;9.52;3.20;;;15.00;99.90;;;;;;4884943;29;20055;-75
2022/07/27 06:01:26;;;;;;;10.63;3.17;;;15.10;99.90;;;;;;4885599;29;20076;-75
2022/07/27 06:03:52;;;;;;;6.90;3.13;;;15.10;99.90;;;;;;4869837;29;20080;-74
2022/07/27 06:09:02;;;;;;;7.35;3.17;;;15.20;99.90;;;;;;4886491;29;20057;-75
2022/07/27 06:11:28;;;;;;;7.43;2.90;;;15.30;99.90;;;;;;4890391;29;20152;-74
2022/07/27 06:13:54;;;;;;;8.55;2.90;;;15.40;99.90;;;;;;4888650;29;20041;-76
2022/07/27 06:16:24;;;;;;;7.28;2.80;;;15.40;99.90;;;;;;4892221;29;20519;-74
2022/07/27 06:18:50;;;;;;;7.13;2.80;;;15.40;99.90;;;;;;4885317;29;20045;-77
2022/07/27 06:21:16;;;;;;;7.68;3.17;;;15.40;99.90;;;;;;4891934;29;20038;-77
2022/07/27 06:23:48;;;;;;;6.60;2.90;;;15.50;99.90;;;;;;4888946;29;20396;-74
2022/07/27 06:26:13;;;;;;;7.53;2.95;;;15.60;99.90;;;;;;4885791;29;20047;-73
2022/07/27 06:28:39;;;;;;;7.18;2.53;;;15.60;99.90;;;;;;4883058;29;20049;-73
2022/07/27 06:31:08;;;;;;;6.63;2.60;;;15.60;99.90;;;;;;4892094;29;20111;-74
2022/07/27 06:33:33;;;;;;;7.60;2.80;;;15.70;99.90;;;;;;4883974;29;20565;-74
2022/07/27 06:36:00;;;;;;;9.27;3.10;;;15.70;99.90;;;;;;4884816;29;20052;-74
2022/07/27 06:38:27;;;;;;;6.95;2.65;;;15.80;99.90;;;;;;4890101;29;20064;-74
2022/07/27 06:40:54;;;;;;;8.30;2.35;;;15.80;99.90;;;;;;4884577;29;20369;-74
2022/07/27 06:43:21;;;;;;;6.43;2.67;;;15.80;99.90;;;;;;4888492;29;20127;-74
2022/07/27 06:45:47;;;;;;;5.38;2.55;;;15.90;99.90;;;;;;4877580;29;20056;-74
2022/07/27 06:48:13;;;;;;;6.18;2.60;;;15.90;99.90;;;;;;4888096;29;20048;-72
2022/07/27 06:50:39;;;;;;;10.52;2.72;;;15.90;99.90;;;;;;4885221;29;20056;-72
2022/07/27 06:53:05;;;;;;;8.38;2.85;;;16.00;99.90;;;;;;4879871;29;20530;-73
2022/07/27 06:55:31;;;;;;;8.40;2.60;;;16.00;99.90;;;;;;4885514;29;20072;-78
2022/07/27 06:57:57;;;;;;;6.55;2.70;;;16.00;99.90;;;;;;4883024;29;20048;-75
2022/07/27 07:00:22;;;;;;;8.07;2.60;;;16.10;99.90;;;;;;4889326;29;20044;-74
2022/07/27 07:02:57;;;;;;;7.82;2.35;;;16.00;99.90;;;;;;4891948;29;20132;-75
2022/07/27 07:05:23;;;;;;;8.68;2.72;;;16.10;99.90;;;;;;4872690;29;20417;-75
2022/07/27 07:07:50;;;;;;;7.07;2.42;;;16.10;99.90;;;;;;4877735;29;20523;-75
2022/07/27 07:10:15;;;;;;;7.28;2.70;;;16.20;99.90;;;;;;4891966;29;20048;-74
2022/07/27 07:12:41;;;;;;;7.93;2.30;;;16.30;99.90;;;;;;4888147;29;20051;-74
2022/07/27 07:15:08;;;;;;;8.40;2.40;;;16.30;99.90;;;;;;4892083;29;20708;-76
2022/07/27 07:17:33;;;;;;;7.57;2.13;;;16.30;99.90;;;;;;4894388;29;20060;-74
2022/07/27 07:19:59;;;;;;;7.80;2.28;;;16.40;99.90;;;;;;4892995;29;20044;-75
2022/07/27 07:22:25;;;;;;;9.35;2.05;;;16.40;99.90;;;;;;4878857;29;20049;-74
2022/07/27 07:24:51;;;;;;;6.60;2.08;;;16.50;99.90;;;;;;4894661;29;20041;-75
2022/07/27 07:27:22;;;;;;;4.68;1.60;;;16.60;99.90;;;;;;4874328;29;20041;-76
2022/07/27 07:29:48;;;;;;;6.88;1.70;;;16.60;99.90;;;;;;4891771;29;20055;-74
2022/07/27 07:32:15;;;;;;;11.27;1.95;;;16.60;99.90;;;;;;4892216;29;20056;-74
2022/07/27 07:34:40;;;;;;;8.93;1.88;;;16.70;99.90;;;;;;4896578;29;20059;-74
2022/07/27 07:37:06;;;;;;;9.20;1.90;;;16.60;99.90;;;;;;4878610;29;20041;-74
2022/07/27 07:39:32;;;;;;;7.75;1.75;;;16.60;99.90;;;;;;4896567;29;20048;-75
2022/07/27 07:41:57;;;;;;;9.27;2.08;;;16.70;99.90;;;;;;4893855;29;20045;-75
2022/07/27 07:44:23;;;;;;;7.10;1.42;;;16.70;99.90;;;;;;4876291;29;20113;-72
2022/07/27 07:46:49;;;;;;;7.93;2.08;;;16.70;99.90;;;;;;4874967;29;20052;-76
2022/07/27 07:49:14;;;;;;;7.65;2.00;;;16.80;99.90;;;;;;4893381;29;20052;-72
2022/07/27 07:51:40;;;;;;;6.38;1.60;;;16.90;99.90;;;;;;4892938;29;20041;-72
2022/07/27 07:54:06;;;;;;;5.22;1.40;;;17.00;99.90;;;;;;4889467;29;20117;-72
2022/07/27 07:56:31;;;;;;;5.13;1.48;;;17.10;99.90;;;;;;4880517;29;20408;-72
2022/07/27 07:58:58;;;;;;;7.90;1.83;;;17.10;99.90;;;;;;4873051;29;20520;-71
2022/07/27 08:01:24;;;;;;;5.15;1.15;;;17.10;99.90;;;;;;4875369;29;20048;-71
2022/07/27 08:03:51;;;;;;;4.18;1.20;;;17.10;99.90;;;;;;4888778;29;20081;-70
2022/07/27 08:06:18;;;;;;;4.47;1.37;;;17.20;99.90;;;;;;4890950;29;20168;-71
2022/07/27 08:08:43;;;;;;;7.43;1.30;;;17.10;99.90;;;;;;4895534;29;20313;-71
2022/07/27 08:11:09;;;;;;;4.97;1.23;;;17.10;99.90;;;;;;4889026;29;20053;-71
2022/07/27 08:13:35;;;;;;;5.22;1.55;;;17.10;99.90;;;;;;4894982;29;20119;-71
2022/07/27 08:16:00;;;;;;;4.00;1.20;;;17.10;99.90;;;;;;4875047;29;20524;-70
2022/07/27 08:18:26;;;;;;;3.25;1.20;;;17.10;99.90;;;;;;4887750;29;20074;-72
2022/07/27 08:20:52;;;;;;;4.57;1.00;;;17.20;99.90;;;;;;4864654;29;20045;-71
2022/07/27 08:23:18;;;;;;;3.63;1.20;;;17.20;99.90;;;;;;4886990;29;20563;-72
2022/07/27 08:25:44;;;;;;;3.97;1.20;;;17.30;99.90;;;;;;4884412;29;20123;-74
2022/07/27 08:28:10;;;;;;;4.85;1.20;;;17.40;99.90;;;;;;4865736;29;20140;-74
2022/07/27 08:30:36;;;;;;;6.38;1.67;;;17.50;99.90;;;;;;4891646;29;20054;-74
2022/07/27 08:33:03;;;;;;;5.68;1.27;;;17.70;99.90;;;;;;4890714;29;20053;-74
2022/07/27 08:35:30;;;;;;;4.32;1.15;;;17.80;99.90;;;;;;4895255;29;20139;-74
2022/07/27 08:37:56;;;;;;;;;;;17.90;99.90;;;;;;4890409;29;20168;-74
2022/07/27 08:40:22;;;;;;;2.33;0.80;;;18.00;99.90;;;;;;4874671;29;19923;-74
2022/07/27 08:42:48;;;;;;;5.35;1.02;;;18.10;99.90;;;;;;4890275;29;20370;-74
2022/07/27 08:45:17;;;;;;;2.72;1.00;;;18.10;99.90;;;;;;4873800;29;20053;-74
2022/07/27 08:47:44;;;;;;;5.15;1.00;;;18.30;99.90;;;;;;4891330;29;20495;-74
2022/07/27 08:50:24;;;;;;;5.07;1.20;;;18.40;99.90;;;;;;4895152;29;20049;-74
2022/07/27 08:52:58;;;;;;;4.38;1.30;;;18.50;99.90;;;;;;4876117;29;20080;-73
2022/07/27 08:55:26;;;;;;;5.95;1.48;;;18.60;99.90;;;;;;4888214;29;20831;-75
2022/07/27 08:57:52;;;;;;;6.00;1.30;;;18.70;99.90;;;;;;4876944;29;20045;-73
2022/07/27 09:00:19;;;;;;;5.53;1.20;;;18.70;99.90;;;;;;4883399;29;20052;-74
2022/07/27 09:02:46;;;;;;;7.10;1.40;;;18.70;99.90;;;;;;4876757;29;20168;-74
2022/07/27 09:05:13;;;;;;;5.13;1.30;;;18.70;99.90;;;;;;4883162;29;20580;-72
2022/07/27 09:07:39;;;;;;;6.45;1.80;;;18.70;99.30;;;;;;4891493;29;20056;-75
2022/07/27 09:10:08;;;;;;;6.47;1.38;;;18.70;99.20;;;;;;4892372;29;20040;-71
2022/07/27 09:12:34;;;;;;;5.40;1.35;;;18.70;99.90;;;;;;4895181;29;20405;-73
2022/07/27 09:15:05;;;;;;;4.57;1.15;;;18.80;99.90;;;;;;4899242;29;20047;-72
2022/07/27 09:17:31;;;;;;;5.25;1.10;;;19.00;99.90;;;;;;4895071;29;20135;-72
2022/07/27 09:20:01;;;;;;;4.82;1.40;;;19.20;99.90;;;;;;4872737;29;20128;-72
2022/07/27 09:22:39;;;;;;;4.95;1.13;;;19.30;99.10;;;;;;4893346;29;20054;-72
2022/07/27 09:25:07;;;;;;;6.00;1.48;;;19.30;98.20;;;;;;4895148;29;20049;-74
2022/07/27 09:27:33;;;;;;;6.00;1.10;;;19.40;99.10;;;;;;4896327;29;20048;-74
2022/07/27 09:30:07;;;;;;;5.18;1.30;;;19.40;98.30;;;;;;4895821;29;20055;-72
2022/07/27 09:32:34;;;;;;;5.00;1.27;;;19.50;97.40;;;;;;4885587;29;20585;-72
2022/07/27 09:35:18;;;;;;;3.97;1.05;;;19.60;97.60;;;;;;4893620;29;20053;-72
2022/07/27 09:37:44;;;;;;;6.68;1.92;;;19.60;95.60;;;;;;4876938;29;20068;-72
2022/07/27 09:40:22;;;;;;;5.72;1.38;;;19.70;97.50;;;;;;4892731;29;20087;-72
2022/07/27 09:43:06;;;;;;;5.30;1.52;;;19.80;96.40;;;;;;4869573;29;20053;-73
2022/07/27 09:45:34;;;;;;;4.43;1.48;;;19.80;96.70;;;;;;4879400;29;20561;-71
2022/07/27 09:48:11;;;;;;;5.50;1.15;;;19.90;96.00;;;;;;4871585;29;20124;-71
2022/07/27 09:50:40;;;;;;;6.22;1.50;;;20.00;96.10;;;;;;4876234;29;20048;-71
2022/07/27 09:53:13;;;;;;;5.90;1.60;;;19.90;97.60;;;;;;4870736;29;20072;-72
2022/07/27 09:55:40;;;;;;;5.20;1.25;;;19.60;99.90;;;;;;4885236;29;20071;-73
2022/07/27 09:58:06;;;;;;;6.43;1.38;;;19.20;99.90;;;;;;4876487;29;20057;-75
2022/07/27 10:00:32;;;;;;;10.25;1.52;;;18.80;99.90;;;;;;4894911;29;20053;-75
2022/07/27 10:02:58;;;;;;;9.32;2.05;;;18.50;99.90;;;;;;4889329;29;20040;-74
2022/07/27 10:05:24;;;;;;;4.53;1.48;;;18.20;99.90;;;;;;4890379;29;20508;-74
2022/07/27 10:07:52;;;;;;;5.90;1.42;;;18.00;99.90;;;;;;4876733;29;20051;-74
2022/07/27 10:10:17;;;;;;;4.75;1.30;;;17.80;99.90;;;;;;4873364;29;20131;-73
2022/07/27 10:12:45;;;;;;;5.47;1.67;;;17.70;99.90;;;;;;4890080;29;20036;-73
2022/07/27 10:15:11;;;;;;;5.70;1.35;;;17.60;99.90;;;;;;4869299;29;20150;-73
2022/07/27 10:17:40;;;;;;;6.50;1.85;;;17.50;99.90;;;;;;4892614;29;20520;-72
2022/07/27 10:20:09;;;;;;;8.70;2.15;;;17.40;99.90;;;;;;4890791;29;20452;-72
2022/07/27 10:22:57;;;;;;;4.80;1.40;;;17.30;99.90;;;;;;4889565;29;20065;-72
2022/07/27 10:25:25;;;;;;;11.60;2.08;;;17.40;99.90;;;;;;4908803;29;20507;-75
2022/07/27 10:28:11;;;;;;;5.90;1.60;;;17.40;99.90;;;;;;4911457;29;20040;-77
2022/07/27 10:30:38;;;;;;;7.18;1.83;;;17.50;99.90;;;;;;4910093;29;20060;-75
2022/07/27 10:33:14;;;;;;;6.23;1.77;;;17.50;99.90;;;;;;4903325;29;20064;-76
2022/07/27 10:35:40;;;;;;;6.43;1.90;;;17.60;99.90;;;;;;4898495;29;20404;-75
2022/07/27 10:38:16;;;;;;;7.80;1.67;;;17.60;99.90;;;;;;4908640;29;20142;-75
2022/07/27 10:40:43;;;;;;;6.35;2.13;;;17.80;99.90;;;;;;4906709;29;20080;-75
2022/07/27 10:43:20;;;;;;;6.07;1.40;;;17.90;99.90;;;;;;4897004;29;20048;-74
2022/07/27 10:45:51;;;;;;;8.30;1.90;;;18.10;99.90;;;;;;4910001;29;20083;-75
2022/07/27 10:48:42;;;;;;;4.78;1.60;;;18.20;99.90;;;;;;4907718;29;20130;-74
2022/07/27 10:51:09;;;;;;;7.63;1.90;;;18.40;99.90;;;;;;4906121;29;20048;-75
2022/07/27 10:53:40;;;;;;;7.25;1.88;;;18.50;99.90;;;;;;4894452;29;20052;-74
2022/07/27 10:56:08;;;;;;;6.47;1.83;;;18.70;99.90;;;;;;4900684;29;20047;-79
2022/07/27 10:58:34;;;;;;;9.02;1.67;;;18.70;99.90;;;;;;4903571;29;20568;-74
2022/07/27 11:01:01;;;;;;;7.22;1.60;;;18.80;99.90;;;;;;4882912;29;20108;-73
2022/07/27 11:03:32;;;;;;;6.35;1.45;;;19.00;99.90;;;;;;4899167;29;20043;-73
2022/07/27 11:06:16;;;;;;;5.75;1.40;;;19.20;99.90;;;;;;4908238;29;20574;-73
2022/07/27 11:08:43;;;;;;;5.53;1.50;;;19.30;99.90;;;;;;4902731;29;20052;-72
2022/07/27 11:11:13;;;;;;;5.78;1.17;;;19.50;99.90;;;;;;4903019;29;20044;-73
2022/07/27 11:13:39;;;;;;;7.15;1.75;;;19.70;99.90;;;;;;4900646;29;20604;-74
2022/07/27 11:16:08;;;;;;;3.53;1.30;;;20.00;99.90;;;;;;4907435;29;20151;-74
2022/07/27 11:18:39;;;;;;;7.40;1.33;;;20.00;99.90;;;;;;4899146;29;20457;-73
2022/07/27 11:21:27;;;;;;;3.97;1.20;;;20.00;99.90;;;;;;4903616;29;20041;-71
2022/07/27 11:23:56;;;;;;;6.57;1.30;;;20.00;99.90;;;;;;4897345;29;20064;-73
2022/07/27 11:26:24;;;;;;;5.20;1.23;;;19.90;99.90;;;;;;4904604;29;20041;-71
2022/07/27 11:28:51;;;;;;;17.77;5.90;;;19.90;99.90;;;;;;4877309;29;20044;-73
2022/07/27 11:31:18;;;;;;;4.63;1.50;;;19.90;99.90;;;;;;4891954;29;20049;-71
2022/07/27 11:33:54;;;;;;;2.70;1.02;;;19.90;99.90;;;;;;4900407;29;20072;-72
2022/07/27 11:36:21;;;;;;;8.45;1.75;;;19.90;98.90;;;;;;4906862;29;20387;-72
2022/07/27 11:38:51;;;;;;;4.43;1.65;;;19.80;99.40;;;;;;4907272;29;20048;-72
2022/07/27 11:41:25;;;;;;;10.35;2.55;;;19.80;98.70;;;;;;4903735;29;20052;-72
2022/07/27 11:43:52;;;;;;;7.57;1.83;;;19.80;97.90;;;;;;4886931;29;20059;-72
2022/07/27 11:46:24;;;;;;;4.97;1.20;;;19.70;97.30;;;;;;4883190;29;20108;-72
2022/07/27 11:49:08;;;;;;;6.40;1.38;;;19.90;98.00;;;;;;4883812;29;20315;-71
2022/07/27 11:51:40;;;;;;;6.75;1.60;;;20.10;96.60;;;;;;4900597;29;20067;-72
2022/07/27 11:54:33;;;;;;;3.20;1.30;;;20.30;94.80;;;;;;4904844;29;20056;-73
2022/07/27 11:57:05;;;;;;;5.45;1.40;;;20.40;95.40;;;;;;4903903;29;20523;-73
2022/07/27 11:59:36;;;;;;;3.75;1.38;;;20.50;94.40;;;;;;4900998;29;20045;-72
2022/07/27 12:02:16;;;;;;;5.18;1.20;;;20.60;96.00;;;;;;4906573;29;20052;-73
2022/07/27 12:04:47;;;;;;;3.53;0.98;;;20.60;93.80;;;;;;4887913;29;20061;-72
2022/07/27 12:07:18;;;;;;;3.95;1.40;;;20.60;93.40;;;;;;4911286;29;20083;-72
2022/07/27 12:09:47;;;;;;;4.05;1.15;;;20.60;93.30;;;;;;4906535;29;20515;-72
2022/07/27 12:12:17;;;;;;;3.60;1.10;;;20.50;91.70;;;;;;4905775;29;20514;-72
2022/07/27 12:14:53;;;;;;;3.67;1.30;;;20.40;91.30;;;;;;4894012;29;20052;-72
2022/07/27 12:17:31;;;;;;;3.30;1.02;;;20.40;93.70;;;;;;4893756;29;20060;-72
2022/07/27 12:20:05;;;;;;;4.50;1.20;;;20.40;91.10;;;;;;4897918;29;20054;-72
2022/07/27 12:22:50;;;;;;;7.50;1.40;;;20.30;91.70;;;;;;4909707;29;20117;-73
2022/07/27 12:25:15;;;;;;;2.90;1.13;;;20.40;91.30;;;;;;4869614;29;20049;-71
2022/07/27 12:27:57;;;;;;;4.10;1.52;;;20.30;90.90;;;;;;4887489;29;20049;-72
2022/07/27 12:30:34;;;;;;;1.77;1.00;;;20.40;90.50;;;;;;4892136;29;20497;-71
2022/07/27 12:33:05;;;;;;;3.60;1.40;;;20.50;90.80;;;;;;4882225;29;20037;-71
2022/07/27 12:35:40;;;;;;;2.40;1.10;;;20.50;84.80;;;;;;4876811;29;20060;-72
2022/07/27 12:38:07;;;;;;;7.22;1.42;;;20.60;90.70;;;;;;4886595;29;20267;-73
2022/07/27 12:40:41;;;;;;;4.13;1.10;;;20.60;91.10;;;;;;4891182;29;20066;-72
2022/07/27 12:43:08;;;;;;;2.47;1.02;;;20.70;89.30;;;;;;4894361;29;20075;-72
2022/07/27 12:45:36;;;;;;;5.50;1.38;;;20.80;81.50;;;;;;4892378;29;20051;-72
2022/07/27 12:48:11;;;;;;;4.45;1.10;;;20.90;85.30;;;;;;4875831;29;20421;-71
2022/07/27 12:50:38;;;;;;;5.57;1.42;;;21.20;82.10;;;;;;4871241;29;20139;-73
2022/07/27 12:53:04;;;;;;;4.93;1.50;;;21.50;82.40;;;;;;4869713;29;20077;-72
2022/07/27 12:55:30;;;;;;;2.40;0.98;;;21.50;76.10;;;;;;4892939;29;20088;-72